createdAt,value
2019-01-14T00:00:02.800Z,16.3
2019-01-14T00:00:53.066Z,16.3
2019-01-14T00:01:43.118Z,16.3
2019-01-14T00:02:33.169Z,16.3
2019-01-14T00:03:23.241Z,16.2
2019-01-14T00:04:13.569Z,16.2
2019-01-14T00:05:03.757Z,16.3
2019-01-14T00:05:53.673Z,16.2
2019-01-14T00:06:43.741Z,16.2
2019-01-14T00:07:33.858Z,16.3
2019-01-14T00:08:23.578Z,16.2
2019-01-14T00:09:13.925Z,16.2
2019-01-14T00:10:03.966Z,16.3
2019-01-14T00:10:54.015Z,16.2
2019-01-14T00:11:44.085Z,16.2
2019-01-14T00:12:33.876Z,16.2
2019-01-14T00:13:23.915Z,16.2
2019-01-14T00:14:14.231Z,16.2
2019-01-14T00:15:04.043Z,16.2
2019-01-14T00:15:54.085Z,16.2
2019-01-14T00:16:44.480Z,16.3
2019-01-14T00:17:34.201Z,16.2
2019-01-14T00:18:24.535Z,16.2
2019-01-14T00:19:14.585Z,16.2
2019-01-14T00:20:03.928Z,16.2
2019-01-14T00:20:54.413Z,16.2
2019-01-14T00:21:44.477Z,16.2
2019-01-14T00:22:33.967Z,16.2
2019-01-14T00:23:24.924Z,16.2
2019-01-14T00:24:14.938Z,16.2
2019-01-14T00:25:05.160Z,16.2
2019-01-14T00:25:55.052Z,16.2
2019-01-14T00:26:45.093Z,16.3
2019-01-14T00:27:35.195Z,16.2
2019-01-14T00:28:25.196Z,16.2
2019-01-14T00:29:15.260Z,16.2
2019-01-14T00:30:05.049Z,16.2
2019-01-14T00:30:55.107Z,16.2
2019-01-14T00:31:45.429Z,16.2
2019-01-14T00:32:36.274Z,16.2
2019-01-14T00:33:25.572Z,16.2
2019-01-14T00:34:15.614Z,16.2
2019-01-14T00:35:05.391Z,16.2
2019-01-14T00:35:55.504Z,16.2
2019-01-14T00:36:45.267Z,16.2
2019-01-14T00:37:35.829Z,16.2
2019-01-14T00:38:25.421Z,16.2
2019-01-14T00:39:15.444Z,16.2
2019-01-14T00:40:05.524Z,16.2
2019-01-14T00:40:55.083Z,16.2
2019-01-14T00:41:45.648Z,16.2
2019-01-14T00:42:35.673Z,16.2
2019-01-14T00:43:25.678Z,16.2
2019-01-14T00:44:16.006Z,16.2
2019-01-14T00:45:05.811Z,16.2
2019-01-14T00:45:56.398Z,16.2
2019-01-14T00:46:46.446Z,16.2
2019-01-14T00:47:38.198Z,16.2
2019-01-14T00:48:26.546Z,16.2
2019-01-14T00:49:16.361Z,16.2
2019-01-14T00:50:06.401Z,16.2
2019-01-14T00:50:56.435Z,16.2
2019-01-14T00:51:46.513Z,16.2
2019-01-14T00:52:36.846Z,16.2
2019-01-14T00:53:26.918Z,16.2
2019-01-14T00:54:16.700Z,16.2
2019-01-14T00:55:06.465Z,16.2
2019-01-14T00:55:56.786Z,16.1
2019-01-14T00:56:46.845Z,16.2
2019-01-14T00:57:37.180Z,16.2
2019-01-14T00:58:26.970Z,16.1
2019-01-14T00:59:16.180Z,16.2
2019-01-14T01:00:07.080Z,16.2
2019-01-14T01:00:57.410Z,16.2
2019-01-14T01:01:47.515Z,16.1
2019-01-14T01:02:37.525Z,16.2
2019-01-14T01:03:27.297Z,16.2
2019-01-14T01:04:17.390Z,16.1
2019-01-14T01:05:07.445Z,16.2
2019-01-14T01:05:57.790Z,16.2
2019-01-14T01:06:47.530Z,16.2
2019-01-14T01:07:37.303Z,16.1
2019-01-14T01:08:27.702Z,16.1
2019-01-14T01:09:17.408Z,16.2
2019-01-14T01:10:08.077Z,16.1
2019-01-14T01:10:57.533Z,16.1
2019-01-14T01:11:47.307Z,16.2
2019-01-14T01:12:37.915Z,16.2
2019-01-14T01:13:28.037Z,16.2
2019-01-14T01:14:18.354Z,16.2
2019-01-14T01:15:08.363Z,16.2
2019-01-14T01:15:58.139Z,16.2
2019-01-14T01:16:48.477Z,16.2
2019-01-14T01:17:38.549Z,16.1
2019-01-14T01:18:28.578Z,16.1
2019-01-14T01:19:18.339Z,16.1
2019-01-14T01:20:07.866Z,16.2
2019-01-14T01:20:58.186Z,16.1
2019-01-14T01:21:48.526Z,16.2
2019-01-14T01:22:38.594Z,16.2
2019-01-14T01:23:28.650Z,16.2
2019-01-14T01:24:18.703Z,16.2
2019-01-14T01:25:09.028Z,16.2
2019-01-14T01:25:58.577Z,16.2
2019-01-14T01:26:49.193Z,16.2
2019-01-14T01:27:38.979Z,16.2
2019-01-14T01:28:29.258Z,16.2
2019-01-14T01:29:19.305Z,16.2
2019-01-14T01:30:08.613Z,16.2
2019-01-14T01:30:58.938Z,16.2
2019-01-14T01:31:48.730Z,16.2
2019-01-14T01:32:38.789Z,16.2
2019-01-14T01:33:29.123Z,16.1
2019-01-14T01:34:19.153Z,16.1
2019-01-14T01:35:09.713Z,16.2
2019-01-14T01:35:59.223Z,16.2
2019-01-14T01:36:49.830Z,16.1
2019-01-14T01:37:39.883Z,16.1
2019-01-14T01:38:29.692Z,16.1
2019-01-14T01:39:19.725Z,16.1
2019-01-14T01:40:09.489Z,16.1
2019-01-14T01:40:59.598Z,16.1
2019-01-14T01:41:49.681Z,16.1
2019-01-14T01:42:39.942Z,16.1
2019-01-14T01:43:30.007Z,16.1
2019-01-14T01:44:20.328Z,16.1
2019-01-14T01:45:11.795Z,16.2
2019-01-14T01:46:00.490Z,16.2
2019-01-14T01:46:49.947Z,16.1
2019-01-14T01:47:40.289Z,16.1
2019-01-14T01:48:30.338Z,16.1
2019-01-14T01:49:20.392Z,16.2
2019-01-14T01:50:10.225Z,16.1
2019-01-14T01:51:00.787Z,16.2
2019-01-14T01:51:50.884Z,16.1
2019-01-14T01:52:40.974Z,16.2
2019-01-14T01:53:30.952Z,16.2
2019-01-14T01:54:20.469Z,16.2
2019-01-14T01:55:10.527Z,16.2
2019-01-14T03:08:49.107Z,35.1
2019-01-14T03:09:38.897Z,35.3
2019-01-14T03:10:28.969Z,35.4
2019-01-14T03:11:19.016Z,35.4
2019-01-14T03:12:08.586Z,35.6
2019-01-14T03:12:59.216Z,35.7
2019-01-14T03:13:49.238Z,35.8
2019-01-14T03:14:39.572Z,36
2019-01-14T03:15:29.291Z,36.1
2019-01-14T03:16:19.609Z,36.2
2019-01-14T03:17:09.756Z,36.3
2019-01-14T03:17:59.461Z,36.4
2019-01-14T03:18:49.886Z,36.6
2019-01-14T03:19:39.588Z,36.7
2019-01-14T03:20:29.917Z,36.8
2019-01-14T03:21:19.964Z,36.9
2019-01-14T03:22:10.066Z,37
2019-01-14T03:22:59.529Z,37.1
2019-01-14T03:23:49.693Z,37.3
2019-01-14T03:24:40.181Z,37.4
2019-01-14T03:25:30.049Z,37.5
2019-01-14T03:26:19.837Z,37.6
2019-01-14T03:27:10.374Z,37.7
2019-01-14T03:28:00.417Z,37.8
2019-01-14T03:28:50.271Z,37.9
2019-01-14T03:29:40.548Z,37.9
2019-01-14T03:30:30.419Z,38
2019-01-14T03:31:20.164Z,38.1
2019-01-14T03:32:10.795Z,38.1
2019-01-14T03:33:00.051Z,38.1
2019-01-14T03:33:50.820Z,38.2
2019-01-14T03:34:40.876Z,38.2
2019-01-14T03:35:30.652Z,38.3
2019-01-14T03:36:20.700Z,38.3
2019-01-14T03:37:11.153Z,38.3
2019-01-14T03:38:01.100Z,38.3
2019-01-14T03:38:51.136Z,38.3
2019-01-14T03:39:40.958Z,38.3
2019-01-14T03:40:30.958Z,38.3
2019-01-14T03:41:21.054Z,38.4
2019-01-14T03:42:11.437Z,38.4
2019-01-14T03:43:00.874Z,38.3
2019-01-14T03:43:51.225Z,38.4
2019-01-14T03:44:40.990Z,38.4
2019-01-14T03:45:31.607Z,38.4
2019-01-14T03:46:21.359Z,38.4
2019-01-14T03:47:11.764Z,38.4
2019-01-14T03:48:01.822Z,38.4
2019-01-14T03:48:51.559Z,38.4
2019-01-14T03:49:41.314Z,38.4
2019-01-14T03:50:31.217Z,38.4
2019-01-14T03:51:21.702Z,38.5
2019-01-14T03:52:12.054Z,38.5
2019-01-14T03:53:01.651Z,38.5
2019-01-14T03:53:52.227Z,38.5
2019-01-14T03:54:42.202Z,38.5
2019-01-14T03:55:31.791Z,38.5
2019-01-14T03:56:22.334Z,38.5
2019-01-14T03:57:12.409Z,38.5
2019-01-14T03:58:01.686Z,38.5
2019-01-14T03:58:51.936Z,38.5
2019-01-14T03:59:42.018Z,38.5
2019-01-14T04:00:32.621Z,38.5
2019-01-14T04:01:22.376Z,38.6
2019-01-14T04:02:12.742Z,38.5
2019-01-14T04:03:02.436Z,38.6
2019-01-14T04:03:52.883Z,38.6
2019-01-14T04:04:42.636Z,38.6
2019-01-14T04:05:32.703Z,38.6
2019-01-14T04:06:22.738Z,38.6
2019-01-14T04:07:19.113Z,38.6
2019-01-14T04:08:02.820Z,38.5
2019-01-14T04:08:53.198Z,38.5
2019-01-14T04:09:43.238Z,38.6
2019-01-14T04:10:33.020Z,38.6
2019-01-14T04:11:22.804Z,38.6
2019-01-14T04:12:13.133Z,38.6
2019-01-14T04:13:03.173Z,38.6
2019-01-14T04:13:53.314Z,38.6
2019-01-14T04:14:42.737Z,38.6
2019-01-14T04:15:33.353Z,38.6
2019-01-14T04:16:23.670Z,38.6
2019-01-14T04:17:13.733Z,38.6
2019-01-14T04:18:03.820Z,38.6
2019-01-14T04:18:53.301Z,38.6
2019-01-14T04:19:43.370Z,38.6
2019-01-14T04:20:33.697Z,38.6
2019-01-14T04:21:23.812Z,38.5
2019-01-14T04:22:13.509Z,38.6
2019-01-14T04:23:05.592Z,38.5
2019-01-14T04:23:53.659Z,38.6
2019-01-14T04:24:44.264Z,38.5
2019-01-14T04:25:34.279Z,38.6
2019-01-14T04:26:23.822Z,38.6
2019-01-14T04:27:14.435Z,38.6
2019-01-14T04:28:04.239Z,38.5
2019-01-14T04:28:54.557Z,38.5
2019-01-14T04:29:44.599Z,38.6
2019-01-14T04:30:34.384Z,38.5
2019-01-14T04:31:24.483Z,38.6
2019-01-14T04:32:14.487Z,38.5
2019-01-14T04:33:04.519Z,38.5
2019-01-14T04:33:54.886Z,38.5
2019-01-14T04:34:44.972Z,38.5
2019-01-14T04:35:34.689Z,38.5
2019-01-14T04:36:24.794Z,38.5
2019-01-14T04:37:22.870Z,38.6
2019-01-14T04:38:04.611Z,38.5
2019-01-14T04:38:55.191Z,38.5
2019-01-14T04:39:45.233Z,38.4
2019-01-14T04:40:35.076Z,38.5
2019-01-14T04:41:25.393Z,38.5
2019-01-14T04:42:15.244Z,38.4
2019-01-14T04:43:05.267Z,38.4
2019-01-14T04:43:54.983Z,38.5
2019-01-14T04:44:45.576Z,38.4
2019-01-14T04:45:35.397Z,38.4
2019-01-14T04:46:25.156Z,38.4
2019-01-14T04:47:15.475Z,38.4
2019-01-14T04:48:05.584Z,38.4
2019-01-14T04:48:55.879Z,38.4
2019-01-14T04:49:45.683Z,38.4
2019-01-14T04:50:35.281Z,38.4
2019-01-14T04:51:25.493Z,38.4
2019-01-14T04:52:15.844Z,38.4
2019-01-14T04:53:05.637Z,38.4
2019-01-14T04:53:55.926Z,38.4
2019-01-14T04:54:46.260Z,38.4
2019-01-14T04:55:35.499Z,38.4
2019-01-14T04:56:26.388Z,38.4
2019-01-14T04:57:15.651Z,38.4
2019-01-14T04:58:06.011Z,38.4
2019-01-14T04:58:56.548Z,38.4
2019-01-14T04:59:46.065Z,38.4
2019-01-14T05:00:36.397Z,38.4
2019-01-14T05:01:26.743Z,38.3
2019-01-14T05:02:16.863Z,38.3
2019-01-14T05:03:06.870Z,38.3
2019-01-14T05:03:56.637Z,38.3
2019-01-14T05:04:46.674Z,38.4
2019-01-14T05:05:36.739Z,38.3
2019-01-14T05:06:26.305Z,38.3
2019-01-14T05:07:16.538Z,38.3
2019-01-14T05:08:06.947Z,38.3
2019-01-14T05:08:56.950Z,38.3
2019-01-14T05:09:46.758Z,38.3
2019-01-14T05:10:36.824Z,38.3
2019-01-14T05:11:27.439Z,38.3
2019-01-14T05:12:17.226Z,38.3
2019-01-14T05:13:07.257Z,38.3
2019-01-14T05:13:57.261Z,38.3
2019-01-14T05:14:46.807Z,38.2
2019-01-14T05:15:39.138Z,38.2
2019-01-14T05:16:27.459Z,38.2
2019-01-14T05:17:17.249Z,38.2
2019-01-14T05:18:07.577Z,38.2
2019-01-14T05:18:57.612Z,38.1
2019-01-14T05:19:47.951Z,38.1
2019-01-14T05:20:38.001Z,38.1
2019-01-14T05:21:27.577Z,38.1
2019-01-14T05:22:18.148Z,38.1
2019-01-14T05:23:07.624Z,38.1
2019-01-14T05:23:57.968Z,38.1
2019-01-14T05:24:47.572Z,38.1
2019-01-14T05:25:37.607Z,38.1
2019-01-14T05:26:27.913Z,38.1
2019-01-14T05:27:17.982Z,38.1
2019-01-14T05:28:07.589Z,38.1
2019-01-14T05:28:57.512Z,38.1
2019-01-14T05:29:47.843Z,38.1
2019-01-14T05:30:37.913Z,38.1
2019-01-14T05:31:27.984Z,38
2019-01-14T05:32:18.796Z,38
2019-01-14T05:33:08.214Z,38
2019-01-14T05:33:58.614Z,38
2019-01-14T05:34:48.467Z,38
2019-01-14T05:35:38.759Z,37.9
2019-01-14T05:36:28.868Z,38
2019-01-14T05:37:18.859Z,37.9
2019-01-14T05:38:08.919Z,37.9
2019-01-14T05:38:58.965Z,37.9
2019-01-14T05:39:49.291Z,37.9
2019-01-14T05:40:39.183Z,37.9
2019-01-14T05:41:29.137Z,37.9
2019-01-14T05:42:18.924Z,37.8
2019-01-14T05:43:09.488Z,37.7
2019-01-14T05:43:58.743Z,37.6
2019-01-14T05:44:49.366Z,37.5
2019-01-14T05:45:39.153Z,37.4
2019-01-14T05:46:29.720Z,37.3
2019-01-14T05:47:19.029Z,37.2
2019-01-14T05:48:09.961Z,37.1
2019-01-14T05:48:59.891Z,36.9
2019-01-14T05:49:49.407Z,36.8
2019-01-14T05:50:39.820Z,36.7
2019-01-14T05:51:29.781Z,36.6
2019-01-14T05:52:19.875Z,36.5
2019-01-14T05:53:10.188Z,36.4
2019-01-14T05:54:00.235Z,36.4
2019-01-14T05:54:50.015Z,36.4
2019-01-14T05:55:40.355Z,36.3
2019-01-14T05:56:29.845Z,36.3
2019-01-14T05:57:20.211Z,36.3
2019-01-14T05:58:10.545Z,36.2
2019-01-14T05:59:00.560Z,36.1
2019-01-14T05:59:50.404Z,36.1
2019-01-14T06:00:40.155Z,36.1
2019-01-14T06:01:30.487Z,36.1
2019-01-14T06:02:20.512Z,36
2019-01-14T06:03:10.867Z,36
2019-01-14T06:04:00.953Z,35.9
2019-01-14T06:04:50.667Z,35.9
2019-01-14T06:06:48.939Z,35.8
2019-01-14T06:07:46.307Z,35.8
2019-01-14T06:08:29.142Z,35.8
2019-01-14T06:09:18.892Z,35.8
2019-01-14T06:10:09.230Z,35.7
2019-01-14T06:10:59.239Z,35.7
2019-01-14T06:11:49.310Z,35.7
2019-01-14T06:12:39.380Z,35.6
2019-01-14T06:13:29.448Z,35.6
2019-01-14T06:14:19.462Z,35.6
2019-01-14T06:15:09.569Z,35.6
2019-01-14T06:15:59.137Z,35.5
2019-01-14T06:16:48.919Z,35.5
2019-01-14T06:17:39.203Z,35.5
2019-01-14T06:18:29.261Z,35.4
2019-01-14T06:19:19.299Z,35.4
2019-01-14T06:20:09.353Z,35.4
2019-01-14T06:20:59.139Z,35.4
2019-01-14T06:21:49.497Z,35.3
2019-01-14T06:22:39.302Z,35.3
2019-01-14T06:23:29.586Z,35.3
2019-01-14T06:24:19.393Z,35.3
2019-01-14T06:25:09.786Z,35.3
2019-01-14T06:25:59.823Z,35.2
2019-01-14T06:26:49.533Z,35.2
2019-01-14T06:27:39.918Z,35.2
2019-01-14T06:28:29.133Z,35.2
2019-01-14T06:29:19.700Z,35.2
2019-01-14T06:30:10.023Z,35.1
2019-01-14T06:30:59.036Z,35.2
2019-01-14T06:31:49.388Z,35.2
2019-01-14T06:32:39.458Z,35.2
2019-01-14T06:33:29.787Z,35.1
2019-01-14T06:34:19.890Z,35.2
2019-01-14T06:35:10.115Z,35.1
2019-01-14T06:36:01.695Z,35.1
2019-01-14T06:36:50.021Z,35.1
2019-01-14T06:37:40.245Z,35.1
2019-01-14T06:38:29.892Z,34.9
2019-01-14T06:39:20.645Z,34.8
2019-01-14T06:40:10.933Z,34.6
2019-01-14T06:41:00.748Z,34.6
2019-01-14T06:41:51.277Z,34.4
2019-01-14T06:42:40.910Z,34.4
2019-01-14T06:43:31.387Z,34.3
2019-01-14T06:44:21.517Z,34.3
2019-01-14T06:45:11.307Z,34.2
2019-01-14T06:46:01.583Z,34.1
2019-01-14T06:46:51.139Z,33.9
2019-01-14T06:47:41.406Z,33.7
2019-01-14T06:48:32.623Z,33.5
2019-01-14T06:49:21.040Z,33.4
2019-01-14T06:50:11.087Z,33.3
2019-01-14T06:51:01.431Z,33.2
2019-01-14T06:51:51.207Z,33.1
2019-01-14T06:52:41.271Z,33
2019-01-14T06:53:31.609Z,32.9
2019-01-14T06:54:21.392Z,32.9
2019-01-14T06:55:11.449Z,32.8
2019-01-14T06:56:01.769Z,32.8
2019-01-14T06:56:51.832Z,32.7
2019-01-14T06:57:41.901Z,32.7
2019-01-14T06:58:31.651Z,32.6
2019-01-14T06:59:21.994Z,32.6
2019-01-14T07:00:11.236Z,32.6
2019-01-14T07:01:02.151Z,32.5
2019-01-14T07:01:52.152Z,32.5
2019-01-14T07:02:41.697Z,32.4
2019-01-14T07:03:32.012Z,32.4
2019-01-14T07:04:22.075Z,32.4
2019-01-14T07:06:48.449Z,32.3
2019-01-14T07:07:37.999Z,32.3
2019-01-14T07:08:28.263Z,32.3
2019-01-14T07:09:18.607Z,32.3
2019-01-14T07:10:08.384Z,32.2
2019-01-14T07:10:58.152Z,32.2
2019-01-14T07:11:48.754Z,32.1
2019-01-14T07:12:38.814Z,32.1
2019-01-14T07:13:28.862Z,32.1
2019-01-14T07:14:18.654Z,32.1
2019-01-14T07:15:08.692Z,32.1
2019-01-14T07:15:59.039Z,32.1
2019-01-14T07:16:48.884Z,32.1
2019-01-14T07:17:38.879Z,32
2019-01-14T07:18:28.925Z,32
2019-01-14T07:19:18.725Z,31.9
2019-01-14T07:20:09.316Z,31.9
2019-01-14T07:20:59.386Z,31.9
2019-01-14T07:21:49.149Z,31.9
2019-01-14T07:22:39.208Z,31.9
2019-01-14T07:23:29.482Z,31.9
2019-01-14T07:24:19.545Z,31.9
2019-01-14T07:25:10.141Z,31.8
2019-01-14T07:26:00.183Z,31.8
2019-01-14T07:26:50.253Z,31.8
2019-01-14T07:27:39.553Z,31.8
2019-01-14T07:28:30.356Z,31.8
2019-01-14T07:29:19.955Z,31.8
2019-01-14T07:30:09.438Z,31.8
2019-01-14T07:31:00.262Z,31.8
2019-01-14T07:31:49.819Z,31.8
2019-01-14T07:32:40.421Z,31.7
2019-01-14T07:33:30.418Z,31.7
2019-01-14T07:34:20.760Z,31.7
2019-01-14T07:35:10.271Z,31.6
2019-01-14T07:36:00.878Z,31.6
2019-01-14T07:36:50.915Z,31.6
2019-01-14T07:37:40.397Z,31.6
2019-01-14T07:38:31.073Z,31.6
2019-01-14T07:39:20.525Z,31.6
2019-01-14T07:40:11.156Z,31.6
2019-01-14T07:41:00.642Z,31.6
2019-01-14T07:41:51.247Z,31.5
2019-01-14T07:42:41.305Z,31.6
2019-01-14T07:43:31.095Z,31.5
2019-01-14T07:44:21.477Z,31.5
2019-01-14T07:45:11.239Z,31.5
2019-01-14T07:46:01.337Z,31.4
2019-01-14T07:46:51.599Z,31.4
2019-01-14T07:47:41.171Z,31.4
2019-01-14T07:48:31.417Z,31.4
2019-01-14T07:49:21.752Z,31.4
2019-01-14T07:50:11.817Z,31.4
2019-01-14T07:51:01.589Z,31.4
2019-01-14T07:51:51.698Z,31.4
2019-01-14T07:52:41.714Z,31.4
2019-01-14T07:53:31.476Z,31.4
2019-01-14T07:54:22.104Z,31.4
2019-01-14T07:55:12.270Z,31.3
2019-01-14T07:56:01.978Z,31.3
2019-01-14T07:56:51.711Z,31.3
2019-01-14T07:57:42.336Z,31.3
2019-01-14T07:58:32.416Z,31.3
2019-01-14T07:59:22.441Z,31.3
2019-01-14T08:00:12.266Z,31.3
2019-01-14T08:01:02.284Z,31.3
2019-01-14T08:01:52.313Z,31.2
2019-01-14T08:02:42.678Z,31.3
2019-01-14T08:03:32.732Z,31.2
2019-01-14T08:04:22.771Z,31.3
2019-01-14T08:05:12.281Z,31.2
2019-01-14T08:06:02.930Z,31.2
2019-01-14T08:06:52.936Z,31.2
2019-01-14T08:07:43.040Z,31.2
2019-01-14T08:08:33.043Z,31.1
2019-01-14T08:09:23.158Z,31.1
2019-01-14T08:10:13.151Z,31.1
2019-01-14T08:11:02.978Z,31.1
2019-01-14T08:11:53.275Z,31.1
2019-01-14T08:12:43.379Z,31.1
2019-01-14T08:13:33.083Z,31.1
2019-01-14T08:14:23.211Z,31.1
2019-01-14T08:15:12.945Z,31.1
2019-01-14T08:16:03.327Z,31.1
2019-01-14T08:16:53.663Z,31.1
2019-01-14T08:17:43.658Z,31
2019-01-14T08:18:33.757Z,31
2019-01-14T08:19:24.608Z,31.1
2019-01-14T08:20:13.547Z,31
2019-01-14T08:21:03.902Z,31
2019-01-14T08:21:53.654Z,31
2019-01-14T08:22:44.028Z,31
2019-01-14T08:23:34.033Z,31
2019-01-14T08:24:24.153Z,31
2019-01-14T08:25:14.162Z,30.9
2019-01-14T08:26:04.277Z,30.9
2019-01-14T08:26:54.262Z,30.9
2019-01-14T08:27:43.582Z,30.9
2019-01-14T08:28:34.392Z,30.9
2019-01-14T08:29:24.442Z,30.9
2019-01-14T08:30:14.551Z,30.9
2019-01-14T08:31:04.853Z,30.9
2019-01-14T08:31:54.612Z,30.9
2019-01-14T08:32:44.194Z,30.9
2019-01-14T08:33:34.754Z,30.9
2019-01-14T08:34:24.781Z,30.9
2019-01-14T08:35:14.842Z,30.8
2019-01-14T08:36:04.376Z,30.8
2019-01-14T08:37:02.144Z,30.8
2019-01-14T08:37:45.033Z,30.8
2019-01-14T08:38:35.051Z,30.8
2019-01-14T08:39:24.896Z,30.8
2019-01-14T08:40:14.623Z,30.8
2019-01-14T08:41:04.664Z,30.8
2019-01-14T08:41:55.003Z,30.8
2019-01-14T08:42:45.060Z,30.8
2019-01-14T08:43:35.413Z,30.8
2019-01-14T08:44:25.451Z,30.8
2019-01-14T08:45:15.248Z,30.8
2019-01-14T08:46:05.599Z,30.8
2019-01-14T08:46:55.668Z,30.7
2019-01-14T08:47:45.688Z,30.7
2019-01-14T08:49:48.208Z,30.7
2019-01-14T08:49:59.631Z,30.6
2019-01-14T08:50:50.118Z,30.7
2019-01-14T08:51:39.895Z,30.7
2019-01-14T08:52:28.805Z,30.6
2019-01-14T08:53:20.295Z,30.6
2019-01-14T08:54:09.595Z,30.6
2019-01-14T08:54:59.930Z,30.6
2019-01-14T08:55:49.977Z,30.6
2019-01-14T08:56:39.470Z,30.6
2019-01-14T08:57:30.135Z,30.6
2019-01-14T08:58:20.142Z,30.6
2019-01-14T08:59:09.941Z,30.6
2019-01-14T09:00:00.781Z,30.6
2019-01-14T09:00:50.032Z,30.6
2019-01-14T09:01:40.100Z,30.6
2019-01-14T09:02:30.350Z,30.6
2019-01-14T09:03:20.475Z,30.6
2019-01-14T09:04:10.525Z,30.6
2019-01-14T09:05:00.317Z,30.6
2019-01-14T09:05:50.681Z,30.5
2019-01-14T09:06:40.692Z,30.5
2019-01-14T09:07:30.484Z,30.5
2019-01-14T09:08:20.277Z,30.5
2019-01-14T09:09:10.856Z,30.5
2019-01-14T09:10:00.993Z,30.5
2019-01-14T09:10:50.969Z,30.5
2019-01-14T09:11:41.034Z,30.4
2019-01-14T09:12:30.816Z,30.4
2019-01-14T09:13:20.592Z,30.4
2019-01-14T09:14:11.194Z,30.4
2019-01-14T09:15:01.262Z,30.4
2019-01-14T09:15:52.026Z,30.4
2019-01-14T09:16:40.832Z,30.4
2019-01-14T09:17:30.869Z,30.4
2019-01-14T09:18:20.906Z,30.4
2019-01-14T09:19:11.544Z,30.4
2019-01-14T09:20:02.263Z,30.4
2019-01-14T09:20:51.371Z,30.4
2019-01-14T09:21:41.712Z,30.4
2019-01-14T09:22:31.211Z,30.4
2019-01-14T09:23:22.296Z,30.4
2019-01-14T09:24:11.969Z,30.4
2019-01-14T09:25:02.469Z,30.3
2019-01-14T09:25:58.671Z,30.3
2019-01-14T09:26:42.631Z,30.3
2019-01-14T09:27:32.106Z,30.3
2019-01-14T09:28:21.315Z,30.3
2019-01-14T09:29:12.200Z,30.3
2019-01-14T09:30:01.818Z,30.3
2019-01-14T09:30:52.056Z,30.3
2019-01-14T09:31:42.632Z,30.3
2019-01-14T09:32:32.428Z,30.3
2019-01-14T09:33:22.785Z,30.3
2019-01-14T09:34:12.483Z,30.3
2019-01-14T09:35:03.184Z,30.3
2019-01-14T09:35:53.192Z,30.3
2019-01-14T09:36:42.960Z,30.3
2019-01-14T09:37:32.766Z,30.3
2019-01-14T09:38:22.593Z,30.3
2019-01-14T09:39:12.937Z,30.3
2019-01-14T09:40:03.195Z,30.3
2019-01-14T09:40:53.532Z,30.2
2019-01-14T09:41:42.982Z,30.2
2019-01-14T09:42:33.298Z,30.2
2019-01-14T09:43:23.647Z,30.2
2019-01-14T09:44:13.424Z,30.2
2019-01-14T09:45:03.762Z,30.2
2019-01-14T09:45:53.264Z,30.2
2019-01-14T09:46:43.597Z,30.2
2019-01-14T09:47:33.910Z,30.2
2019-01-14T09:48:23.986Z,30.2
2019-01-14T09:49:13.759Z,30.1
2019-01-14T09:50:03.879Z,30.1
2019-01-14T09:50:53.871Z,30.1
2019-01-14T09:51:44.215Z,30.1
2019-01-14T09:52:34.039Z,30.1
2019-01-14T09:53:24.342Z,30.1
2019-01-14T09:54:14.104Z,30.1
2019-01-14T09:55:09.589Z,30.1
2019-01-14T09:55:54.214Z,30.1
2019-01-14T09:56:44.542Z,30.1
2019-01-14T09:57:35.774Z,30.1
2019-01-14T09:58:24.394Z,30.1
2019-01-14T09:59:14.691Z,30.1
2019-01-14T10:00:04.836Z,30.1
2019-01-14T10:00:54.823Z,30.1
2019-01-14T10:01:44.636Z,30.1
2019-01-14T10:02:34.205Z,30
2019-01-14T10:03:24.233Z,30.1
2019-01-14T10:04:13.981Z,30
2019-01-14T10:05:04.896Z,30
2019-01-14T10:07:48.746Z,30
2019-01-14T10:08:45.553Z,30
2019-01-14T10:09:28.305Z,29.9
2019-01-14T10:10:19.045Z,29.9
2019-01-14T10:11:08.678Z,29.9
2019-01-14T10:11:58.736Z,30
2019-01-14T10:12:48.811Z,29.9
2019-01-14T10:13:39.125Z,30
2019-01-14T10:14:28.905Z,29.9
2019-01-14T10:15:18.977Z,29.9
2019-01-14T10:16:09.305Z,29.9
2019-01-14T10:16:59.076Z,29.9
2019-01-14T10:17:49.170Z,29.9
2019-01-14T10:18:39.515Z,29.9
2019-01-14T10:19:29.522Z,29.9
2019-01-14T10:20:19.290Z,29.9
2019-01-14T10:21:09.363Z,29.9
2019-01-14T10:21:59.690Z,29.9
2019-01-14T10:22:49.806Z,29.9
2019-01-14T10:23:39.798Z,29.9
2019-01-14T10:24:29.934Z,29.9
2019-01-14T10:25:19.904Z,29.9
2019-01-14T10:26:09.967Z,29.9
2019-01-14T10:26:59.737Z,29.8
2019-01-14T10:27:50.154Z,29.9
2019-01-14T10:28:39.913Z,29.8
2019-01-14T10:29:30.195Z,29.8
2019-01-14T10:30:19.737Z,29.8
2019-01-14T10:31:10.314Z,29.8
2019-01-14T10:32:00.074Z,29.8
2019-01-14T10:32:50.150Z,29.8
2019-01-14T10:33:40.494Z,29.8
2019-01-14T10:34:29.816Z,29.8
2019-01-14T10:35:19.562Z,29.8
2019-01-14T10:36:10.635Z,29.8
2019-01-14T10:37:00.415Z,29.8
2019-01-14T10:37:50.503Z,29.8
2019-01-14T10:38:40.255Z,29.8
2019-01-14T10:39:30.335Z,29.8
2019-01-14T10:40:20.725Z,29.8
2019-01-14T10:41:10.761Z,29.8
2019-01-14T10:42:05.102Z,29.8
2019-01-14T10:42:50.807Z,29.8
2019-01-14T10:43:40.873Z,29.8
2019-01-14T10:44:30.935Z,29.7
2019-01-14T10:45:20.729Z,29.7
2019-01-14T10:46:11.295Z,29.8
2019-01-14T10:47:01.155Z,29.8
2019-01-14T10:47:51.439Z,29.7
2019-01-14T10:48:41.554Z,29.7
2019-01-14T10:49:31.275Z,29.7
2019-01-14T10:50:21.098Z,29.7
2019-01-14T10:51:11.107Z,29.7
2019-01-14T10:52:00.879Z,29.7
2019-01-14T10:52:51.581Z,29.7
2019-01-14T10:53:41.536Z,29.7
2019-01-14T10:54:31.874Z,29.7
2019-01-14T10:55:21.954Z,29.6
2019-01-14T10:56:11.984Z,29.6
2019-01-14T10:57:02.099Z,29.6
2019-01-14T10:57:51.552Z,29.6
2019-01-14T10:58:42.161Z,29.6
2019-01-14T10:59:31.451Z,29.6
2019-01-14T11:00:22.279Z,29.6
2019-01-14T11:01:12.383Z,29.6
2019-01-14T11:02:02.096Z,29.6
2019-01-14T11:02:53.301Z,29.6
2019-01-14T11:03:42.487Z,29.6
2019-01-14T11:04:32.546Z,29.6
2019-01-14T11:05:22.611Z,29.6
2019-01-14T11:06:12.671Z,29.6
2019-01-14T11:07:02.242Z,29.6
2019-01-14T11:07:52.580Z,29.6
2019-01-14T11:08:42.553Z,29.6
2019-01-14T11:09:32.891Z,29.6
2019-01-14T11:10:22.933Z,29.6
2019-01-14T11:11:12.729Z,29.6
2019-01-14T11:12:02.786Z,29.6
2019-01-14T11:12:53.155Z,29.6
2019-01-14T11:13:42.328Z,29.6
2019-01-14T11:14:33.275Z,29.6
2019-01-14T11:15:22.998Z,29.5
2019-01-14T11:16:13.048Z,29.5
2019-01-14T11:17:03.385Z,29.5
2019-01-14T11:17:52.895Z,29.5
2019-01-14T11:18:43.221Z,29.5
2019-01-14T11:19:33.271Z,29.5
2019-01-14T11:20:23.411Z,29.5
2019-01-14T11:21:17.845Z,29.4
2019-01-14T11:22:03.442Z,29.5
2019-01-14T11:22:53.225Z,29.5
2019-01-14T11:23:43.840Z,29.5
2019-01-14T11:24:33.887Z,29.5
2019-01-14T11:25:23.678Z,29.4
2019-01-14T11:26:13.719Z,29.4
2019-01-14T11:27:04.045Z,29.4
2019-01-14T11:27:53.859Z,29.4
2019-01-14T11:28:43.937Z,29.4
2019-01-14T11:29:34.207Z,29.4
2019-01-14T11:30:24.326Z,29.4
2019-01-14T11:31:14.342Z,29.4
2019-01-14T11:32:04.426Z,29.4
2019-01-14T11:32:54.469Z,29.4
2019-01-14T11:33:44.364Z,29.4
2019-01-14T11:34:34.552Z,29.4
2019-01-14T11:35:24.635Z,29.4
2019-01-14T11:36:14.737Z,29.4
2019-01-14T11:37:04.505Z,29.4
2019-01-14T11:37:54.800Z,29.4
2019-01-14T11:38:44.839Z,29.4
2019-01-14T11:39:34.897Z,29.4
2019-01-14T11:40:24.757Z,29.4
2019-01-14T11:41:15.076Z,29.4
2019-01-14T11:42:04.824Z,29.4
2019-01-14T11:42:54.849Z,29.4
2019-01-14T11:43:45.186Z,29.4
2019-01-14T11:44:35.226Z,29.3
2019-01-14T11:45:25.286Z,29.3
2019-01-14T11:46:15.079Z,29.3
2019-01-14T11:47:04.924Z,29.3
2019-01-14T11:47:55.171Z,29.3
2019-01-14T11:48:44.961Z,29.3
2019-01-14T11:49:35.579Z,29.3
2019-01-14T11:50:25.101Z,29.3
2019-01-14T11:51:15.686Z,29.3
2019-01-14T11:52:05.488Z,29.3
2019-01-14T11:52:55.815Z,29.3
2019-01-14T11:53:45.566Z,29.3
2019-01-14T11:54:35.351Z,29.3
2019-01-14T11:55:25.418Z,29.3
2019-01-14T11:56:15.455Z,29.3
2019-01-14T11:57:06.143Z,29.3
2019-01-14T11:57:56.140Z,29.3
2019-01-14T11:58:45.898Z,29.3
2019-01-14T11:59:36.353Z,29.3
2019-01-14T12:00:26.035Z,29.3
2019-01-14T12:01:16.372Z,29.3
2019-01-14T12:02:06.416Z,29.3
2019-01-14T12:02:56.540Z,29.3
2019-01-14T12:03:46.265Z,29.3
2019-01-14T12:04:36.025Z,29.3
2019-01-14T12:05:26.690Z,29.2
2019-01-14T12:07:48.775Z,29.2
2019-01-14T12:08:53.670Z,29.2
2019-01-14T12:09:28.207Z,29.2
2019-01-14T12:10:18.435Z,29.2
2019-01-14T12:11:09.335Z,29.2
2019-01-14T12:11:58.055Z,29.2
2019-01-14T12:12:48.183Z,29.2
2019-01-14T12:13:38.490Z,29.2
2019-01-14T12:14:28.492Z,29.2
2019-01-14T12:15:18.833Z,29.1
2019-01-14T12:16:08.357Z,29.1
2019-01-14T12:16:58.950Z,29.2
2019-01-14T12:17:48.169Z,29.2
2019-01-14T12:18:39.057Z,29.1
2019-01-14T12:19:29.132Z,29.1
2019-01-14T12:20:18.889Z,29.1
2019-01-14T12:21:08.978Z,29.1
2019-01-14T12:21:58.461Z,29.1
2019-01-14T12:22:49.389Z,29.1
2019-01-14T12:23:38.554Z,29.1
2019-01-14T12:24:29.742Z,29.1
2019-01-14T12:25:20.984Z,29.1
2019-01-14T12:26:09.557Z,29.1
2019-01-14T12:26:59.347Z,29.1